LAN104 SCEL-SCSE
Flight info
| Callsign | LAN104 |
|---|---|
| Flight time | 0h 49m |
| Altitude | 32000 |
| Route | DONTI5B DONTI UQ802 KUGAP KUGAP5 |
| Aircraft | A320/M-SDE3FGHIRWY/LB1 |
Departure
| Time | 2026-04-20 14:24 |
|---|---|
| Airport | Comodoro Arturo Merino Benítez International Airport (SCEL) |
Arrival
| Time | 2026-04-20 15:13 |
|---|---|
| Airport | La Florida Airport (SCSE) |
| Time | Latitude | Longitude | Altitude | Speed | Heading |
|---|---|---|---|---|---|
| 2026-04-20 13:28 | -33.39599 | -70.79533 | 1565 ft | 0 kts | 176° |
| 2026-04-20 14:05 | -33.39583 | -70.79534 | 1537 ft | 3 kts | 177° |
| 2026-04-20 14:06 | -33.39564 | -70.79535 | 1569 ft | 3 kts | 179° |
| 2026-04-20 14:06 | -33.39544 | -70.79533 | 1564 ft | 3 kts | 198° |
| 2026-04-20 14:06 | -33.39527 | -70.79523 | 1564 ft | 3 kts | 228° |
| 2026-04-20 14:06 | -33.39516 | -70.79504 | 1564 ft | 3 kts | 255° |
| 2026-04-20 14:07 | -33.39513 | -70.79482 | 1564 ft | 2 kts | 267° |
| 2026-04-20 14:07 | -33.39513 | -70.79468 | 1564 ft | 3 kts | 267° |
| 2026-04-20 14:07 | -33.39512 | -70.79453 | 1564 ft | 0 kts | 267° |
| 2026-04-20 14:07 | -33.39512 | -70.79452 | 1564 ft | 0 kts | 267° |
| 2026-04-20 14:10 | -33.39512 | -70.79457 | 1564 ft | 2 kts | 267° |
| 2026-04-20 14:11 | -33.39513 | -70.79490 | 1564 ft | 6 kts | 268° |
| 2026-04-20 14:11 | -33.39515 | -70.79542 | 1564 ft | 6 kts | 270° |
| 2026-04-20 14:11 | -33.39491 | -70.79577 | 1564 ft | 6 kts | 335° |
| 2026-04-20 14:11 | -33.39448 | -70.79584 | 1564 ft | 5 kts | 357° |
| 2026-04-20 14:12 | -33.39428 | -70.79585 | 1564 ft | 2 kts | 358° |
| 2026-04-20 14:12 | -33.39414 | -70.79586 | 1564 ft | 2 kts | 359° |
| 2026-04-20 14:12 | -33.39393 | -70.79587 | 1564 ft | 3 kts | 358° |
| 2026-04-20 14:12 | -33.39365 | -70.79588 | 1564 ft | 5 kts | 354° |
| 2026-04-20 14:13 | -33.39340 | -70.79610 | 1564 ft | 5 kts | 305° |
| 2026-04-20 14:13 | -33.39334 | -70.79649 | 1565 ft | 5 kts | 269° |
| 2026-04-20 14:13 | -33.39336 | -70.79699 | 1565 ft | 7 kts | 267° |
| 2026-04-20 14:13 | -33.39339 | -70.79760 | 1565 ft | 8 kts | 266° |
| 2026-04-20 14:14 | -33.39342 | -70.79834 | 1565 ft | 10 kts | 267° |
| 2026-04-20 14:14 | -33.39344 | -70.79918 | 1565 ft | 11 kts | 270° |
| 2026-04-20 14:14 | -33.39331 | -70.79995 | 1565 ft | 8 kts | 298° |
| 2026-04-20 14:14 | -33.39299 | -70.80029 | 1566 ft | 4 kts | 321° |
| 2026-04-20 14:15 | -33.39280 | -70.80046 | 1566 ft | 3 kts | 326° |
| 2026-04-20 14:15 | -33.39263 | -70.80057 | 1566 ft | 3 kts | 336° |
| 2026-04-20 14:15 | -33.39228 | -70.80060 | 1566 ft | 6 kts | 359° |
| 2026-04-20 14:15 | -33.39175 | -70.80063 | 1566 ft | 9 kts | 356° |
| 2026-04-20 14:16 | -33.39105 | -70.80067 | 1566 ft | 11 kts | 358° |
| 2026-04-20 14:16 | -33.39020 | -70.80071 | 1567 ft | 13 kts | 358° |
| 2026-04-20 14:16 | -33.38919 | -70.80077 | 1567 ft | 16 kts | 357° |
| 2026-04-20 14:16 | -33.38802 | -70.80084 | 1567 ft | 18 kts | 357° |
| 2026-04-20 14:17 | -33.38677 | -70.80091 | 1567 ft | 17 kts | 357° |
| 2026-04-20 14:17 | -33.38564 | -70.80096 | 1567 ft | 16 kts | 357° |
| 2026-04-20 14:17 | -33.38452 | -70.80103 | 1567 ft | 16 kts | 357° |
| 2026-04-20 14:17 | -33.38337 | -70.80109 | 1566 ft | 17 kts | 358° |
| 2026-04-20 14:18 | -33.38230 | -70.80115 | 1566 ft | 14 kts | 357° |
| 2026-04-20 14:18 | -33.38140 | -70.80120 | 1566 ft | 12 kts | 358° |
| 2026-04-20 14:18 | -33.38068 | -70.80123 | 1566 ft | 9 kts | 357° |
| 2026-04-20 14:18 | -33.38008 | -70.80127 | 1566 ft | 8 kts | 357° |
| 2026-04-20 14:19 | -33.37955 | -70.80130 | 1566 ft | 8 kts | 357° |
| 2026-04-20 14:19 | -33.37904 | -70.80133 | 1566 ft | 7 kts | 357° |
| 2026-04-20 14:19 | -33.37856 | -70.80135 | 1566 ft | 6 kts | 357° |
| 2026-04-20 14:19 | -33.37815 | -70.80137 | 1566 ft | 5 kts | 358° |
| 2026-04-20 14:20 | -33.37776 | -70.80139 | 1566 ft | 6 kts | 358° |
| 2026-04-20 14:20 | -33.37731 | -70.80141 | 1566 ft | 7 kts | 357° |
| 2026-04-20 14:20 | -33.37674 | -70.80144 | 1567 ft | 9 kts | 357° |
| 2026-04-20 14:20 | -33.37602 | -70.80149 | 1567 ft | 11 kts | 357° |
| 2026-04-20 14:21 | -33.37515 | -70.80153 | 1566 ft | 14 kts | 357° |
| 2026-04-20 14:21 | -33.37412 | -70.80157 | 1567 ft | 16 kts | 357° |
| 2026-04-20 14:21 | -33.37295 | -70.80164 | 1567 ft | 18 kts | 357° |
| 2026-04-20 14:21 | -33.37174 | -70.80170 | 1567 ft | 17 kts | 355° |
| 2026-04-20 14:22 | -33.37111 | -70.80221 | 1568 ft | 9 kts | 299° |
| 2026-04-20 14:22 | -33.37102 | -70.80277 | 1571 ft | 4 kts | 266° |
| 2026-04-20 14:22 | -33.37110 | -70.80316 | 1573 ft | 7 kts | 252° |
| 2026-04-20 14:22 | -33.37144 | -70.80382 | 1574 ft | 12 kts | 220° |
| 2026-04-20 14:23 | -33.37188 | -70.80377 | 1573 ft | 5 kts | 172° |
| 2026-04-20 14:23 | -33.37309 | -70.80369 | 1573 ft | 45 kts | 177° |
| 2026-04-20 14:23 | -33.37859 | -70.80338 | 1573 ft | 110 kts | 177° |
| 2026-04-20 14:23 | -33.38803 | -70.80288 | 1611 ft | 156 kts | 178° |
| 2026-04-20 14:24 | -33.39868 | -70.80247 | 2324 ft | 156 kts | 178° |
| 2026-04-20 14:24 | -33.41010 | -70.80188 | 2739 ft | 175 kts | 179° |
| 2026-04-20 14:24 | -33.42306 | -70.80123 | 3049 ft | 198 kts | 179° |
| 2026-04-20 14:24 | -33.43767 | -70.80047 | 3375 ft | 223 kts | 178° |
| 2026-04-20 14:25 | -33.45408 | -70.79960 | 3846 ft | 248 kts | 176° |
| 2026-04-20 14:25 | -33.47183 | -70.79829 | 4444 ft | 267 kts | 176° |
| 2026-04-20 14:25 | -33.49072 | -70.79702 | 5339 ft | 276 kts | 177° |
| 2026-04-20 14:25 | -33.51023 | -70.79588 | 6243 ft | 284 kts | 178° |
| 2026-04-20 14:26 | -33.53026 | -70.79471 | 7106 ft | 292 kts | 178° |
| 2026-04-20 14:26 | -33.55069 | -70.79597 | 7948 ft | 297 kts | 198° |
| 2026-04-20 14:26 | -33.56888 | -70.80699 | 8836 ft | 293 kts | 225° |
| 2026-04-20 14:26 | -33.58107 | -70.82597 | 9762 ft | 285 kts | 252° |
| 2026-04-20 14:27 | -33.58633 | -70.84884 | 10382 ft | 291 kts | 271° |
| 2026-04-20 14:27 | -33.58390 | -70.87320 | 10887 ft | 299 kts | 288° |
| 2026-04-20 14:27 | -33.57852 | -70.89741 | 11705 ft | 303 kts | 289° |
| 2026-04-20 14:27 | -33.57282 | -70.92187 | 12650 ft | 305 kts | 289° |
| 2026-04-20 14:28 | -33.56706 | -70.94647 | 13627 ft | 308 kts | 289° |
| 2026-04-20 14:28 | -33.56144 | -70.97140 | 14535 ft | 312 kts | 285° |
| 2026-04-20 14:28 | -33.56142 | -70.99776 | 15373 ft | 325 kts | 263° |
| 2026-04-20 14:28 | -33.56932 | -71.02355 | 16225 ft | 333 kts | 251° |
| 2026-04-20 14:29 | -33.57796 | -71.04925 | 17073 ft | 330 kts | 258° |
| 2026-04-20 14:29 | -33.58457 | -71.07568 | 17925 ft | 331 kts | 259° |
| 2026-04-20 14:29 | -33.59036 | -71.10239 | 18722 ft | 329 kts | 267° |
| 2026-04-20 14:29 | -33.58916 | -71.12933 | 19441 ft | 323 kts | 288° |
| 2026-04-20 14:30 | -33.57918 | -71.15326 | 20227 ft | 324 kts | 308° |
| 2026-04-20 14:30 | -33.56184 | -71.17073 | 21029 ft | 332 kts | 327° |
| 2026-04-20 14:30 | -33.53944 | -71.17923 | 21774 ft | 348 kts | 347° |
| 2026-04-20 14:30 | -33.51467 | -71.17729 | 22496 ft | 368 kts | 5° |
| 2026-04-20 14:31 | -33.48994 | -71.16935 | 23203 ft | 374 kts | 7° |
| 2026-04-20 14:31 | -33.46478 | -71.16063 | 23917 ft | 379 kts | 7° |
| 2026-04-20 14:31 | -33.43912 | -71.15495 | 24500 ft | 368 kts | 352° |
| 2026-04-20 14:31 | -33.41455 | -71.15911 | 25098 ft | 359 kts | 339° |
| 2026-04-20 14:32 | -33.39048 | -71.16727 | 25732 ft | 359 kts | 335° |
| 2026-04-20 14:32 | -33.36746 | -71.17845 | 26346 ft | 357 kts | 329° |
| 2026-04-20 14:32 | -33.34492 | -71.19125 | 26932 ft | 360 kts | 328° |
| 2026-04-20 14:32 | -33.32221 | -71.20427 | 27464 ft | 364 kts | 328° |
| 2026-04-20 14:33 | -33.29924 | -71.21731 | 28072 ft | 368 kts | 329° |
| 2026-04-20 14:33 | -33.27591 | -71.23012 | 28715 ft | 369 kts | 328° |
| 2026-04-20 14:33 | -33.25254 | -71.24321 | 29324 ft | 374 kts | 330° |
| 2026-04-20 14:33 | -33.22814 | -71.25475 | 29904 ft | 379 kts | 332° |
| 2026-04-20 14:34 | -33.20356 | -71.26637 | 30423 ft | 381 kts | 330° |
| 2026-04-20 14:34 | -33.17892 | -71.27842 | 30875 ft | 384 kts | 330° |
| 2026-04-20 14:34 | -33.15409 | -71.29053 | 31336 ft | 386 kts | 330° |
| 2026-04-20 14:34 | -33.12918 | -71.30272 | 31763 ft | 389 kts | 331° |
| 2026-04-20 14:35 | -33.10269 | -71.30978 | 32304 ft | 406 kts | 348° |
| 2026-04-20 14:35 | -33.07396 | -71.30635 | 32872 ft | 428 kts | 5° |
| 2026-04-20 14:35 | -33.04554 | -71.29222 | 33170 ft | 452 kts | 21° |
| 2026-04-20 14:35 | -33.02848 | -71.27743 | 33216 ft | 467 kts | 32° |
| 2026-04-20 14:36 | -33.00669 | -71.24734 | 33235 ft | 493 kts | 49° |
| 2026-04-20 14:36 | -32.98482 | -71.19901 | 33220 ft | 500 kts | 50° |
| 2026-04-20 14:36 | -32.96420 | -71.16698 | 33213 ft | 477 kts | 33° |
| 2026-04-20 14:36 | -32.93837 | -71.14397 | 33212 ft | 453 kts | 16° |
| 2026-04-20 14:37 | -32.90980 | -71.13139 | 33205 ft | 427 kts | 359° |
| 2026-04-20 14:37 | -32.89051 | -71.12808 | 33216 ft | 421 kts | 355° |
| 2026-04-20 14:37 | -32.83251 | -71.12257 | 33198 ft | 408 kts | 346° |
| 2026-04-20 14:38 | -32.80592 | -71.12896 | 33203 ft | 376 kts | 331° |
| 2026-04-20 14:38 | -32.78155 | -71.13917 | 33202 ft | 369 kts | 331° |
| 2026-04-20 14:38 | -32.73325 | -71.15931 | 33202 ft | 366 kts | 331° |
| 2026-04-20 14:39 | -32.68532 | -71.17925 | 33202 ft | 365 kts | 331° |
| 2026-04-20 14:39 | -32.63620 | -71.19590 | 33197 ft | 382 kts | 346° |
| 2026-04-20 14:40 | -32.58245 | -71.19733 | 33200 ft | 387 kts | 347° |
| 2026-04-20 14:40 | -32.52883 | -71.19801 | 33198 ft | 388 kts | 347° |
| 2026-04-20 14:41 | -32.47492 | -71.19881 | 33188 ft | 387 kts | 347° |
| 2026-04-20 14:41 | -32.42107 | -71.19981 | 33187 ft | 387 kts | 347° |
| 2026-04-20 14:42 | -32.36716 | -71.20081 | 33179 ft | 387 kts | 347° |
| 2026-04-20 14:42 | -32.31334 | -71.20175 | 33181 ft | 387 kts | 347° |
| 2026-04-20 14:43 | -32.25953 | -71.20272 | 33185 ft | 387 kts | 346° |
| 2026-04-20 14:43 | -32.20560 | -71.20378 | 33187 ft | 387 kts | 346° |
| 2026-04-20 14:44 | -32.15172 | -71.20480 | 33185 ft | 387 kts | 346° |
| 2026-04-20 14:44 | -32.09785 | -71.20574 | 33181 ft | 387 kts | 346° |
| 2026-04-20 14:45 | -32.04399 | -71.20665 | 33180 ft | 387 kts | 346° |
| 2026-04-20 14:45 | -31.99052 | -71.20757 | 33170 ft | 386 kts | 346° |
| 2026-04-20 14:46 | -31.93674 | -71.20858 | 33171 ft | 386 kts | 346° |
| 2026-04-20 14:46 | -31.88286 | -71.20959 | 33178 ft | 387 kts | 346° |
| 2026-04-20 14:47 | -31.82900 | -71.21059 | 33177 ft | 387 kts | 346° |
| 2026-04-20 14:48 | -31.74757 | -71.21092 | 32536 ft | 399 kts | 349° |
| 2026-04-20 14:48 | -31.71967 | -71.20938 | 31875 ft | 402 kts | 351° |
| 2026-04-20 14:48 | -31.69181 | -71.20724 | 31355 ft | 400 kts | 351° |
| 2026-04-20 14:48 | -31.66427 | -71.20492 | 30743 ft | 393 kts | 351° |
| 2026-04-20 14:49 | -31.63734 | -71.20271 | 30198 ft | 384 kts | 351° |
| 2026-04-20 14:49 | -31.61089 | -71.20076 | 29763 ft | 376 kts | 351° |
| 2026-04-20 14:49 | -31.58498 | -71.19903 | 29376 ft | 370 kts | 351° |
| 2026-04-20 14:49 | -31.55981 | -71.19748 | 29002 ft | 365 kts | 350° |
| 2026-04-20 14:50 | -31.53466 | -71.19604 | 28638 ft | 360 kts | 351° |
| 2026-04-20 14:50 | -31.50971 | -71.19468 | 28276 ft | 357 kts | 351° |
| 2026-04-20 14:50 | -31.48489 | -71.19331 | 27910 ft | 356 kts | 351° |
| 2026-04-20 14:50 | -31.46028 | -71.19191 | 27533 ft | 353 kts | 351° |
| 2026-04-20 14:51 | -31.43583 | -71.19045 | 27181 ft | 351 kts | 351° |
| 2026-04-20 14:51 | -31.41153 | -71.18898 | 26811 ft | 349 kts | 352° |
| 2026-04-20 14:51 | -31.38735 | -71.18747 | 26437 ft | 347 kts | 352° |
| 2026-04-20 14:51 | -31.36332 | -71.18598 | 26070 ft | 345 kts | 352° |
| 2026-04-20 14:52 | -31.33943 | -71.18451 | 25684 ft | 343 kts | 352° |
| 2026-04-20 14:52 | -31.31561 | -71.18309 | 25301 ft | 342 kts | 353° |
| 2026-04-20 14:52 | -31.29185 | -71.18169 | 24908 ft | 341 kts | 353° |
| 2026-04-20 14:52 | -31.26819 | -71.18031 | 24511 ft | 340 kts | 353° |
| 2026-04-20 14:53 | -31.24460 | -71.17895 | 24112 ft | 339 kts | 353° |
| 2026-04-20 14:53 | -31.22108 | -71.17756 | 23712 ft | 338 kts | 353° |
| 2026-04-20 14:53 | -31.19762 | -71.17614 | 23262 ft | 336 kts | 354° |
| 2026-04-20 14:53 | -31.17441 | -71.17470 | 22863 ft | 333 kts | 354° |
| 2026-04-20 14:54 | -31.15141 | -71.17327 | 22462 ft | 328 kts | 354° |
| 2026-04-20 14:54 | -31.12872 | -71.17187 | 22077 ft | 325 kts | 354° |
| 2026-04-20 14:54 | -31.10622 | -71.17052 | 21683 ft | 322 kts | 354° |
| 2026-04-20 14:54 | -31.08391 | -71.16920 | 21300 ft | 320 kts | 354° |
| 2026-04-20 14:55 | -31.06173 | -71.16789 | 20915 ft | 318 kts | 354° |
| 2026-04-20 14:55 | -31.03967 | -71.16657 | 20529 ft | 316 kts | 355° |
| 2026-04-20 14:55 | -31.01777 | -71.16526 | 20146 ft | 314 kts | 355° |
| 2026-04-20 14:55 | -30.99601 | -71.16395 | 19769 ft | 313 kts | 355° |
| 2026-04-20 14:56 | -30.97428 | -71.16266 | 19383 ft | 311 kts | 355° |
| 2026-04-20 14:56 | -30.95275 | -71.16140 | 19017 ft | 309 kts | 356° |
| 2026-04-20 14:56 | -30.93128 | -71.16012 | 18683 ft | 309 kts | 356° |
| 2026-04-20 14:56 | -30.90983 | -71.15882 | 18334 ft | 308 kts | 356° |
| 2026-04-20 14:57 | -30.88875 | -71.15753 | 17979 ft | 306 kts | 356° |
| 2026-04-20 14:57 | -30.86751 | -71.15626 | 17651 ft | 305 kts | 356° |
| 2026-04-20 14:57 | -30.84641 | -71.15501 | 17312 ft | 303 kts | 357° |
| 2026-04-20 14:57 | -30.82542 | -71.15375 | 16984 ft | 301 kts | 357° |
| 2026-04-20 14:58 | -30.80457 | -71.15250 | 16657 ft | 299 kts | 357° |
| 2026-04-20 14:58 | -30.78422 | -71.15127 | 16330 ft | 298 kts | 358° |
| 2026-04-20 14:58 | -30.76300 | -71.14999 | 15989 ft | 297 kts | 358° |
| 2026-04-20 14:58 | -30.74271 | -71.14876 | 15683 ft | 295 kts | 358° |
| 2026-04-20 14:59 | -30.72223 | -71.14753 | 15361 ft | 295 kts | 358° |
| 2026-04-20 14:59 | -30.70169 | -71.14630 | 15034 ft | 293 kts | 359° |
| 2026-04-20 14:59 | -30.68142 | -71.14510 | 14715 ft | 291 kts | 359° |
| 2026-04-20 14:59 | -30.66128 | -71.14391 | 14402 ft | 289 kts | 359° |
| 2026-04-20 15:00 | -30.64124 | -71.14272 | 14089 ft | 287 kts | 359° |
| 2026-04-20 15:00 | -30.62133 | -71.14152 | 13752 ft | 285 kts | 359° |
| 2026-04-20 15:00 | -30.60158 | -71.14036 | 13433 ft | 282 kts | 360° |
| 2026-04-20 15:00 | -30.58227 | -71.13922 | 13132 ft | 281 kts | 360° |
| 2026-04-20 15:01 | -30.56251 | -71.13806 | 12824 ft | 280 kts | 360° |
| 2026-04-20 15:01 | -30.54336 | -71.13693 | 12512 ft | 279 kts | 0° |
| 2026-04-20 15:01 | -30.52398 | -71.13578 | 12210 ft | 278 kts | 0° |
| 2026-04-20 15:01 | -30.50467 | -71.13466 | 11905 ft | 277 kts | 0° |
| 2026-04-20 15:02 | -30.48541 | -71.13355 | 11603 ft | 276 kts | 0° |
| 2026-04-20 15:02 | -30.46622 | -71.13240 | 11307 ft | 275 kts | 0° |
| 2026-04-20 15:02 | -30.44714 | -71.13126 | 11015 ft | 275 kts | 0° |
| 2026-04-20 15:02 | -30.42801 | -71.13013 | 10703 ft | 274 kts | 1° |
| 2026-04-20 15:03 | -30.40913 | -71.12899 | 10408 ft | 273 kts | 1° |
| 2026-04-20 15:03 | -30.39013 | -71.12784 | 10004 ft | 274 kts | 1° |
| 2026-04-20 15:03 | -30.37107 | -71.12671 | 9634 ft | 273 kts | 1° |
| 2026-04-20 15:03 | -30.35221 | -71.12559 | 9333 ft | 270 kts | 1° |
| 2026-04-20 15:04 | -30.33340 | -71.12447 | 9031 ft | 269 kts | 1° |
| 2026-04-20 15:04 | -30.31465 | -71.12338 | 8733 ft | 270 kts | 1° |
| 2026-04-20 15:04 | -30.29676 | -71.12232 | 8446 ft | 269 kts | 1° |
| 2026-04-20 15:04 | -30.27797 | -71.12122 | 8158 ft | 271 kts | 2° |
| 2026-04-20 15:05 | -30.25922 | -71.12012 | 7865 ft | 269 kts | 2° |
| 2026-04-20 15:05 | -30.24049 | -71.11902 | 7570 ft | 269 kts | 2° |
| 2026-04-20 15:05 | -30.22179 | -71.11762 | 7275 ft | 270 kts | 3° |
| 2026-04-20 15:05 | -30.20329 | -71.11602 | 6981 ft | 270 kts | 4° |
| 2026-04-20 15:06 | -30.18462 | -71.11434 | 6679 ft | 268 kts | 4° |
| 2026-04-20 15:06 | -30.16621 | -71.11269 | 6386 ft | 261 kts | 4° |
| 2026-04-20 15:06 | -30.14849 | -71.11112 | 6102 ft | 250 kts | 4° |
| 2026-04-20 15:06 | -30.13158 | -71.10960 | 5838 ft | 238 kts | 6° |
| 2026-04-20 15:07 | -30.11601 | -71.10495 | 5590 ft | 227 kts | 23° |
| 2026-04-20 15:07 | -30.10240 | -71.09618 | 5331 ft | 220 kts | 31° |
| 2026-04-20 15:07 | -30.08941 | -71.08706 | 5100 ft | 217 kts | 31° |
| 2026-04-20 15:07 | -30.07656 | -71.07809 | 4857 ft | 215 kts | 31° |
| 2026-04-20 15:08 | -30.06379 | -71.06921 | 4597 ft | 213 kts | 31° |
| 2026-04-20 15:08 | -30.05127 | -71.06050 | 4385 ft | 208 kts | 31° |
| 2026-04-20 15:08 | -30.03892 | -71.05222 | 4112 ft | 203 kts | 25° |
| 2026-04-20 15:08 | -30.02574 | -71.04721 | 3850 ft | 199 kts | 9° |
| 2026-04-20 15:09 | -30.01211 | -71.04623 | 3610 ft | 194 kts | 354° |
| 2026-04-20 15:09 | -29.99904 | -71.04912 | 3374 ft | 189 kts | 340° |
| 2026-04-20 15:09 | -29.98732 | -71.05531 | 3123 ft | 184 kts | 327° |
| 2026-04-20 15:09 | -29.97740 | -71.06437 | 2887 ft | 180 kts | 314° |
| 2026-04-20 15:10 | -29.96989 | -71.07543 | 2659 ft | 176 kts | 301° |
| 2026-04-20 15:10 | -29.96447 | -71.08765 | 2425 ft | 165 kts | 296° |
| 2026-04-20 15:10 | -29.95970 | -71.09881 | 2232 ft | 147 kts | 297° |
| 2026-04-20 15:10 | -29.95528 | -71.10907 | 2044 ft | 140 kts | 297° |
| 2026-04-20 15:11 | -29.95098 | -71.11902 | 1858 ft | 137 kts | 297° |
| 2026-04-20 15:11 | -29.94675 | -71.12884 | 1680 ft | 136 kts | 297° |
| 2026-04-20 15:11 | -29.94254 | -71.13861 | 1495 ft | 135 kts | 297° |
| 2026-04-20 15:11 | -29.93836 | -71.14833 | 1312 ft | 135 kts | 297° |
| 2026-04-20 15:12 | -29.93421 | -71.15790 | 1155 ft | 132 kts | 297° |
| 2026-04-20 15:12 | -29.93008 | -71.16737 | 966 ft | 131 kts | 296° |
| 2026-04-20 15:12 | -29.92619 | -71.17680 | 776 ft | 131 kts | 295° |
| 2026-04-20 15:12 | -29.92219 | -71.18614 | 597 ft | 129 kts | 296° |
| 2026-04-20 15:13 | -29.91825 | -71.19531 | 479 ft | 119 kts | 296° |
| 2026-04-20 15:13 | -29.91536 | -71.20203 | 480 ft | 55 kts | 296° |
| 2026-04-20 15:13 | -29.91442 | -71.20424 | 480 ft | 14 kts | 296° |
| 2026-04-20 15:13 | -29.91392 | -71.20500 | 478 ft | 11 kts | 296° |
| 2026-04-20 15:14 | -29.91401 | -71.20525 | 478 ft | 3 kts | 149° |
| 2026-04-20 15:14 | -29.91416 | -71.20490 | 477 ft | 7 kts | 114° |
| 2026-04-20 15:14 | -29.91448 | -71.20411 | 480 ft | 13 kts | 115° |
| 2026-04-20 15:14 | -29.91493 | -71.20306 | 479 ft | 15 kts | 116° |
| 2026-04-20 15:15 | -29.91538 | -71.20272 | 479 ft | 9 kts | 191° |
| 2026-04-20 15:15 | -29.91591 | -71.20298 | 477 ft | 8 kts | 208° |
| 2026-04-20 15:15 | -29.91610 | -71.20330 | 476 ft | 4 kts | 264° |
| 2026-04-20 15:15 | -29.91599 | -71.20367 | 478 ft | 6 kts | 270° |
| 2026-04-20 15:16 | -29.91625 | -71.20396 | 480 ft | 4 kts | 205° |
| 2026-04-20 15:16 | -29.91636 | -71.20402 | 480 ft | 0 kts | 205° |